Time;durP1;ratioP1;P1;durP2;ratioP2;P2;SDS_P1;SDS_P2;PMS_P1;PMS_P2;Temp;Humidity;BMP_temperature;BMP_pressure;BME280_temperature;BME280_humidity;BME280_pressure;Samples;Min_cycle;Max_cycle;Signal;HPM_P1;HPM_P2
2023/05/31 00:01:44;;;;;;;11.40;4.80;;;17.90;99.90;;;;;;5057955;28;20550;-68
2023/05/31 00:04:12;;;;;;;12.60;8.93;;;18.20;99.90;;;;;;5072402;28;20249;-68
2023/05/31 00:06:39;;;;;;;9.97;3.97;;;18.40;99.90;;;;;;5067812;28;20184;-70
2023/05/31 00:09:07;;;;;;;17.17;11.97;;;18.40;99.90;;;;;;5051827;28;20753;-70
2023/05/31 00:11:35;;;;;;;13.27;9.37;;;18.90;99.90;;;;;;5057326;28;20199;-69
2023/05/31 00:14:03;;;;;;;7.50;3.77;;;19.10;99.90;;;;;;5052859;28;20248;-70
2023/05/31 00:16:30;;;;;;;10.27;4.00;;;19.60;99.90;;;;;;5052490;28;20261;-69
2023/05/31 00:18:58;;;;;;;7.83;3.57;;;19.50;99.90;;;;;;5052450;28;20181;-70
2023/05/31 00:21:27;;;;;;;9.67;3.60;;;19.70;99.90;;;;;;5065143;28;20183;-69
2023/05/31 00:23:55;;;;;;;8.13;3.50;;;19.80;99.90;;;;;;5069094;28;20205;-69
2023/05/31 00:26:23;;;;;;;10.03;3.50;;;20.10;99.90;;;;;;5055426;28;20177;-68
2023/05/31 00:28:50;;;;;;;8.50;3.63;;;20.30;99.90;;;;;;5052534;28;20245;-69
2023/05/31 00:31:18;;;;;;;10.40;3.80;;;21.10;99.90;;;;;;5052192;28;20216;-69
2023/05/31 00:33:46;;;;;;;9.97;3.60;;;20.80;99.90;;;;;;5051972;28;20173;-69
2023/05/31 00:36:14;;;;;;;5.27;3.23;;;20.90;99.90;;;;;;5051955;28;20193;-69
2023/05/31 00:38:41;;;;;;;7.87;3.67;;;21.40;99.90;;;;;;5051990;28;20199;-70
2023/05/31 00:41:11;;;;;;;7.97;3.70;;;21.70;99.90;;;;;;5052209;28;20187;-70
2023/05/31 00:43:39;;;;;;;8.30;3.57;;;21.80;99.90;;;;;;5058106;28;20660;-70
2023/05/31 00:46:10;;;;;;;6.60;3.37;;;22.10;99.90;;;;;;5069791;28;20223;-69
2023/05/31 00:48:40;;;;;;;6.23;3.03;;;22.00;99.90;;;;;;5052213;28;20193;-69
2023/05/31 00:51:08;;;;;;;5.13;3.10;;;21.90;99.90;;;;;;5051848;28;20303;-70
2023/05/31 00:53:36;;;;;;;3.80;2.80;;;21.50;99.90;;;;;;5052235;28;20263;-70
2023/05/31 00:56:04;;;;;;;8.27;2.97;;;21.00;99.90;;;;;;5052028;28;20583;-70
2023/05/31 00:58:34;;;;;;;8.13;3.20;;;21.10;99.90;;;;;;5052056;28;20196;-69
2023/05/31 01:01:02;;;;;;;7.70;3.47;;;20.70;99.90;;;;;;5051901;28;20228;-70
2023/05/31 01:03:30;;;;;;;9.33;3.30;;;21.00;99.90;;;;;;5056513;28;20191;-70
2023/05/31 01:05:58;;;;;;;6.63;3.23;;;21.50;99.90;;;;;;5053504;28;20246;-69
2023/05/31 01:08:25;;;;;;;8.40;3.70;;;21.50;99.90;;;;;;5051808;28;20551;-69
2023/05/31 01:10:57;;;;;;;6.60;3.90;;;21.00;99.90;;;;;;5050855;28;20224;-69
2023/05/31 01:13:59;;;;;;;6.37;3.00;;;20.50;99.90;;;;;;5064682;28;20237;-69
2023/05/31 01:16:42;;;;;;;8.27;3.10;;;20.60;99.90;;;;;;5012524;28;20226;-69
2023/05/31 01:19:20;;;;;;;7.33;3.07;;;20.50;99.90;;;;;;5042840;28;20185;-69
2023/05/31 01:22:23;;;;;;;5.33;2.97;;;20.10;99.90;;;;;;5044088;28;20503;-69
2023/05/31 01:25:13;;;;;;;8.47;3.07;;;20.10;99.90;;;;;;5040869;28;20192;-69
2023/05/31 01:27:43;;;;;;;8.00;3.30;;;19.80;99.90;;;;;;5051575;28;20183;-70
2023/05/31 01:30:12;;;;;;;7.80;3.13;;;19.90;99.90;;;;;;5050910;28;20222;-69
2023/05/31 01:32:41;;;;;;;9.57;4.50;;;19.80;99.90;;;;;;5051512;28;20184;-69
2023/05/31 01:35:09;;;;;;;7.03;2.40;;;19.80;99.90;;;;;;5033450;28;20601;-69
2023/05/31 01:37:37;;;;;;;6.03;2.30;;;19.90;99.90;;;;;;5063325;28;20670;-69
2023/05/31 01:40:06;;;;;;;4.57;2.60;;;20.10;99.90;;;;;;5051729;28;20187;-69
2023/05/31 01:42:34;;;;;;;8.07;2.47;;;20.50;99.90;;;;;;5051271;28;20195;-69
2023/05/31 01:45:03;;;;;;;4.17;2.63;;;21.10;99.90;;;;;;5050648;28;20225;-69
2023/05/31 01:47:32;;;;;;;3.33;2.00;;;22.00;99.90;;;;;;5050668;28;20184;-69
2023/05/31 01:50:00;;;;;;;7.03;2.57;;;22.50;99.90;;;;;;5050853;28;20271;-69
2023/05/31 01:52:29;;;;;;;7.67;2.37;;;22.60;99.90;;;;;;5051225;28;20216;-70
2023/05/31 01:54:56;;;;;;;5.27;2.20;;;22.90;99.90;;;;;;5051079;28;20190;-69
2023/05/31 01:57:25;;;;;;;6.50;2.07;;;23.40;99.90;;;;;;5050884;28;20192;-70
2023/05/31 01:59:54;;;;;;;3.47;1.73;;;23.20;99.90;;;;;;5050335;28;20267;-69
2023/05/31 02:02:25;;;;;;;2.83;1.70;;;23.20;99.90;;;;;;5051431;28;20188;-69
2023/05/31 02:05:08;;;;;;;4.50;1.60;;;23.20;99.90;;;;;;5051688;28;20177;-69
2023/05/31 02:07:36;;;;;;;5.10;2.07;;;23.20;99.90;;;;;;5052007;28;20208;-70
2023/05/31 02:10:05;;;;;;;4.17;1.90;;;23.70;99.90;;;;;;5032638;28;20560;-69
2023/05/31 02:12:32;;;;;;;4.57;2.30;;;23.70;99.90;;;;;;5050135;28;20185;-68
2023/05/31 02:15:00;;;;;;;3.77;1.80;;;23.10;99.90;;;;;;5049991;28;20183;-69
2023/05/31 02:17:32;;;;;;;3.20;1.50;;;22.80;99.90;;;;;;5050155;28;20203;-68
2023/05/31 02:20:00;;;;;;;3.87;2.20;;;22.60;99.90;;;;;;5050405;28;20200;-69
2023/05/31 02:22:28;;;;;;;3.87;2.57;;;22.30;99.90;;;;;;5050215;28;20181;-69
2023/05/31 02:24:56;;;;;;;3.43;1.43;;;22.10;99.90;;;;;;5051272;28;20187;-68
2023/05/31 02:27:24;;;;;;;4.53;1.87;;;21.90;99.90;;;;;;5052186;28;20177;-69
2023/05/31 02:29:51;;;;;;;5.40;1.70;;;21.50;99.90;;;;;;5052115;28;20184;-67
2023/05/31 02:32:19;;;;;;;4.97;2.27;;;21.30;99.90;;;;;;5051878;28;20222;-68
2023/05/31 02:34:47;;;;;;;4.90;2.13;;;21.40;99.90;;;;;;5052290;28;20180;-70
2023/05/31 02:40:37;;;;;;;5.40;2.00;;;21.90;99.90;;;;;;5051534;28;20184;-68
2023/05/31 02:43:11;;;;;;;5.27;1.83;;;22.00;99.90;;;;;;5051779;28;20255;-68
2023/05/31 02:45:39;;;;;;;4.90;1.93;;;22.20;99.90;;;;;;5052129;28;20290;-69
2023/05/31 02:48:07;;;;;;;3.73;1.87;;;22.20;99.90;;;;;;5051811;28;20239;-69
2023/05/31 02:50:35;;;;;;;5.80;2.27;;;22.20;99.90;;;;;;5051919;28;20212;-69
2023/05/31 02:53:05;;;;;;;2.23;1.53;;;22.10;99.90;;;;;;5051944;28;20244;-69
2023/05/31 02:55:34;;;;;;;2.90;1.67;;;22.00;99.90;;;;;;5051929;28;20184;-69
2023/05/31 02:58:02;;;;;;;3.30;1.53;;;22.20;99.90;;;;;;5036231;28;20183;-68
2023/05/31 03:00:29;;;;;;;2.13;1.73;;;22.40;99.90;;;;;;5055357;28;20599;-69
2023/05/31 03:02:57;;;;;;;5.13;1.97;;;22.80;99.90;;;;;;5055563;28;20177;-70
2023/05/31 03:05:26;;;;;;;9.23;1.90;;;22.80;99.90;;;;;;5055526;28;20455;-70
2023/05/31 03:07:53;;;;;;;4.00;3.23;;;22.50;99.90;;;;;;5055568;28;20219;-70
2023/05/31 03:10:21;;;;;;;8.40;3.70;;;22.20;99.90;;;;;;5037549;28;20645;-70
2023/05/31 03:12:49;;;;;;;10.53;6.07;;;22.20;99.90;;;;;;5055381;28;20271;-70
2023/05/31 03:15:17;;;;;;;5.57;1.40;;;22.60;99.90;;;;;;5055370;28;20654;-70
2023/05/31 03:17:45;;;;;;;4.20;1.27;;;23.00;99.90;;;;;;5055290;28;20180;-68
2023/05/31 03:20:13;;;;;;;4.77;2.37;;;23.00;99.90;;;;;;5055370;28;20176;-70
2023/05/31 03:22:40;;;;;;;3.77;1.53;;;23.10;99.90;;;;;;5054960;28;20187;-69
2023/05/31 03:25:09;;;;;;;2.20;1.50;;;23.10;99.90;;;;;;5055171;28;20195;-70
2023/05/31 03:27:39;;;;;;;3.90;1.80;;;23.00;99.90;;;;;;5054940;28;20184;-70
2023/05/31 03:31:01;;;;;;;2.20;1.40;;;22.80;99.90;;;;;;5054904;28;20260;-69
2023/05/31 03:33:30;;;;;;;6.77;1.43;;;22.80;99.90;;;;;;5036867;28;20267;-70
2023/05/31 03:35:58;;;;;;;4.43;1.50;;;22.90;99.90;;;;;;5054881;28;20705;-70
2023/05/31 03:38:26;;;;;;;4.07;1.57;;;23.00;99.90;;;;;;5054906;28;20234;-69
2023/05/31 03:40:54;;;;;;;6.13;1.97;;;22.80;99.90;;;;;;5054886;28;20215;-70
2023/05/31 03:43:21;;;;;;;4.37;1.40;;;22.90;99.90;;;;;;5054748;28;20239;-70
2023/05/31 03:45:49;;;;;;;5.17;1.63;;;23.10;99.90;;;;;;5054797;28;20252;-69
2023/05/31 03:48:17;;;;;;;3.43;1.90;;;23.20;99.90;;;;;;5036738;28;20184;-70
2023/05/31 03:50:45;;;;;;;6.83;1.90;;;23.20;99.90;;;;;;5054688;28;20208;-69
2023/05/31 03:53:13;;;;;;;5.70;2.03;;;23.30;99.90;;;;;;5054272;28;20192;-69
2023/05/31 03:55:40;;;;;;;4.37;1.60;;;22.90;99.90;;;;;;5054736;28;20184;-69
2023/05/31 03:58:08;;;;;;;3.53;1.57;;;22.70;99.90;;;;;;5054578;28;20176;-69
2023/05/31 04:00:36;;;;;;;2.93;1.80;;;22.70;99.90;;;;;;5054316;28;20204;-69
2023/05/31 04:03:04;;;;;;;2.10;1.80;;;22.40;99.90;;;;;;5054357;28;20266;-69
2023/05/31 04:05:31;;;;;;;1.80;1.50;;;22.40;99.90;;;;;;5054296;28;20184;-69
2023/05/31 04:08:01;;;;;;;4.30;1.70;;;22.20;99.90;;;;;;5054283;28;20184;-69
2023/05/31 04:10:29;;;;;;;4.83;1.83;;;22.10;99.90;;;;;;5053664;28;20211;-68
2023/05/31 04:12:57;;;;;;;5.30;1.87;;;21.70;99.90;;;;;;5053924;28;20179;-69
2023/05/31 04:15:25;;;;;;;2.93;1.70;;;21.70;99.90;;;;;;5053824;28;20228;-69
2023/05/31 04:17:52;;;;;;;7.63;1.83;;;21.70;99.90;;;;;;5054046;28;20594;-69
2023/05/31 04:20:20;;;;;;;2.47;1.60;;;21.80;99.90;;;;;;5053946;28;20176;-70
2023/05/31 04:22:55;;;;;;;35.87;16.90;;;21.80;99.90;;;;;;5053754;28;20291;-70
2023/05/31 04:25:22;;;;;;;12.43;4.93;;;21.80;99.90;;;;;;5053667;28;20246;-69
2023/05/31 04:27:51;;;;;;;5.53;2.00;;;21.90;99.90;;;;;;5053614;28;20169;-69
2023/05/31 04:30:23;;;;;;;30.37;16.83;;;21.90;99.90;;;;;;5053280;28;20278;-69
2023/05/31 04:32:52;;;;;;;71.73;49.73;;;21.80;99.90;;;;;;5034857;28;20192;-71
2023/05/31 04:35:20;;;;;;;5.67;3.90;;;21.80;99.90;;;;;;5053041;28;20184;-70
2023/05/31 04:41:10;;;;;;;6.53;4.47;;;21.60;99.90;;;;;;5047516;28;20231;-72
2023/05/31 04:43:39;;;;;;;13.87;3.00;;;21.60;99.90;;;;;;5053354;28;20664;-73
2023/05/31 04:46:09;;;;;;;3.03;1.93;;;21.50;99.90;;;;;;5053382;28;20196;-73
2023/05/31 04:48:37;;;;;;;9.03;7.40;;;21.40;99.90;;;;;;5053569;28;20176;-74
2023/05/31 04:51:05;;;;;;;6.90;5.20;;;21.40;99.90;;;;;;5052961;28;20216;-71
2023/05/31 04:53:33;;;;;;;2.43;2.00;;;21.30;99.90;;;;;;5035143;28;20652;-71
2023/05/31 04:56:06;;;;;;;4.17;1.87;;;21.20;99.90;;;;;;5035000;28;20280;-71
2023/05/31 04:58:35;;;;;;;8.83;2.00;;;21.20;99.90;;;;;;5053284;28;20638;-74
2023/05/31 05:01:02;;;;;;;5.57;1.83;;;21.20;99.90;;;;;;5052850;28;20184;-72
2023/05/31 05:03:31;;;;;;;5.17;2.30;;;21.10;99.90;;;;;;5053018;28;20684;-72
2023/05/31 05:06:01;;;;;;;6.27;4.33;;;21.10;99.90;;;;;;5052797;28;20184;-71
2023/05/31 05:08:28;;;;;;;4.73;2.33;;;21.10;99.90;;;;;;5052955;28;20239;-70
2023/05/31 05:10:56;;;;;;;4.97;1.93;;;21.10;99.90;;;;;;5052972;28;20375;-71
2023/05/31 05:13:24;;;;;;;12.33;4.53;;;21.10;99.90;;;;;;5052536;28;20645;-73
2023/05/31 05:15:52;;;;;;;13.00;2.80;;;21.00;99.90;;;;;;5051891;28;20169;-73
2023/05/31 05:18:20;;;;;;;8.73;3.33;;;21.00;99.90;;;;;;5053334;28;20192;-72
2023/05/31 05:20:48;;;;;;;4.47;3.00;;;20.90;99.90;;;;;;5051924;28;20199;-72
2023/05/31 05:23:16;;;;;;;6.70;2.87;;;20.90;99.90;;;;;;5052512;28;20183;-71
2023/05/31 05:25:44;;;;;;;4.50;2.67;;;20.80;99.90;;;;;;5052304;28;20175;-72
2023/05/31 05:28:12;;;;;;;4.13;2.37;;;20.60;99.90;;;;;;5052429;28;20665;-69
2023/05/31 05:30:40;;;;;;;5.03;2.40;;;20.50;99.90;;;;;;5052473;28;20199;-72
2023/05/31 05:33:08;;;;;;;6.97;2.97;;;20.40;99.90;;;;;;5052264;28;20660;-71
2023/05/31 05:35:36;;;;;;;6.87;3.00;;;20.50;99.90;;;;;;5052004;28;20255;-72
2023/05/31 05:38:03;;;;;;;7.83;3.00;;;20.40;99.90;;;;;;5052682;28;20183;-72
2023/05/31 05:40:32;;;;;;;6.30;2.77;;;20.40;99.90;;;;;;5048816;28;20193;-71
2023/05/31 05:43:00;;;;;;;5.40;2.77;;;20.40;99.90;;;;;;5034072;28;20668;-70
2023/05/31 05:45:28;;;;;;;8.57;3.30;;;20.30;99.90;;;;;;5052171;28;20228;-68
2023/05/31 05:47:57;;;;;;;24.20;14.83;;;20.20;99.90;;;;;;5051009;28;20243;-69
2023/05/31 05:50:24;;;;;;;69.17;32.33;;;20.20;99.90;;;;;;5050297;28;20657;-69
2023/05/31 05:52:52;;;;;;;323.20;147.53;;;20.20;99.90;;;;;;5050246;28;20181;-69
2023/05/31 05:55:20;;;;;;;84.87;40.33;;;20.10;99.90;;;;;;5050304;28;20177;-70
2023/05/31 05:57:48;;;;;;;106.13;62.73;;;20.10;99.90;;;;;;5049782;28;20266;-69
2023/05/31 06:00:17;;;;;;;15.43;8.87;;;20.10;99.90;;;;;;5050229;28;20180;-69
2023/05/31 06:02:45;;;;;;;9.57;4.90;;;19.90;99.90;;;;;;5050356;28;20180;-69
2023/05/31 06:05:13;;;;;;;6.43;2.83;;;19.80;99.90;;;;;;5051835;28;20180;-68
2023/05/31 06:07:41;;;;;;;6.03;3.20;;;19.70;99.90;;;;;;5052305;28;20175;-68
2023/05/31 06:10:09;;;;;;;13.30;4.70;;;19.60;99.90;;;;;;5052169;28;20206;-69
2023/05/31 06:12:37;;;;;;;7.63;3.23;;;19.50;99.90;;;;;;5051948;28;20303;-69
2023/05/31 06:15:05;;;;;;;7.60;4.90;;;19.50;99.90;;;;;;5052351;28;20187;-69
2023/05/31 06:17:33;;;;;;;12.90;4.20;;;19.40;99.90;;;;;;5051982;28;20251;-68
2023/05/31 06:20:02;;;;;;;6.43;4.00;;;19.40;99.90;;;;;;5052213;28;20263;-69
2023/05/31 06:22:30;;;;;;;4.37;2.63;;;19.30;99.90;;;;;;5051905;28;20282;-68
2023/05/31 06:24:59;;;;;;;6.23;3.03;;;19.20;99.90;;;;;;5052196;28;20177;-69
2023/05/31 06:27:27;;;;;;;5.73;2.90;;;19.20;99.90;;;;;;5051880;28;20173;-70
2023/05/31 06:29:58;;;;;;;5.20;2.90;;;19.10;99.90;;;;;;5052127;28;20207;-70
2023/05/31 06:32:27;;;;;;;4.37;2.80;;;19.00;99.90;;;;;;5053229;28;20322;-69
2023/05/31 06:34:55;;;;;;;2.80;2.20;;;18.90;99.90;;;;;;5037951;28;20191;-69
2023/05/31 06:37:23;;;;;;;5.07;2.40;;;18.90;99.90;;;;;;5055787;28;20689;-69
2023/05/31 06:39:51;;;;;;;6.27;3.07;;;18.80;99.90;;;;;;5055947;28;20644;-69
2023/05/31 06:42:19;;;;;;;5.27;2.67;;;18.70;99.90;;;;;;5055807;28;20652;-69
2023/05/31 06:44:47;;;;;;;3.50;2.33;;;18.60;99.90;;;;;;5055528;28;20228;-69
2023/05/31 06:47:15;;;;;;;5.57;2.60;;;18.50;99.90;;;;;;5037655;28;20236;-69
2023/05/31 06:49:44;;;;;;;3.27;2.30;;;18.50;99.90;;;;;;5055138;28;20672;-69
2023/05/31 06:52:13;;;;;;;5.73;2.53;;;18.50;99.90;;;;;;5055400;28;20216;-69
2023/05/31 06:54:43;;;;;;;5.30;2.60;;;18.40;99.90;;;;;;5055327;28;20169;-69
2023/05/31 06:57:11;;;;;;;5.23;2.37;;;18.30;99.90;;;;;;5055183;28;20174;-68
2023/05/31 06:59:38;;;;;;;7.93;2.80;;;18.20;99.90;;;;;;5055084;28;20238;-69
2023/05/31 07:02:06;;;;;;;5.13;2.97;;;18.20;99.90;;;;;;5055149;28;20559;-69
2023/05/31 07:04:34;;;;;;;3.67;2.97;;;18.10;99.90;;;;;;5055058;28;20209;-69
2023/05/31 07:07:03;;;;;;;6.57;3.00;;;18.00;99.90;;;;;;5055112;28;20177;-69
2023/05/31 07:09:31;;;;;;;4.33;2.67;;;18.00;99.90;;;;;;5054999;28;20172;-69
2023/05/31 07:11:59;;;;;;;4.30;2.90;;;17.90;99.90;;;;;;5055086;28;20204;-68
2023/05/31 07:14:28;;;;;;;4.20;2.60;;;17.90;99.90;;;;;;5037112;28;20540;-70
2023/05/31 07:16:56;;;;;;;4.57;2.50;;;17.90;99.90;;;;;;5036911;28;20565;-68
2023/05/31 07:19:24;;;;;;;6.57;3.20;;;17.80;99.90;;;;;;5055139;28;20509;-68
2023/05/31 07:21:51;;;;;;;9.90;5.57;;;17.70;99.90;;;;;;5054750;28;20207;-69
2023/05/31 07:24:19;;;;;;;5.00;4.10;;;17.60;99.90;;;;;;5054844;28;20223;-69
2023/05/31 07:26:47;;;;;;;5.80;3.60;;;17.50;99.90;;;;;;5054836;28;20638;-69
2023/05/31 07:29:15;;;;;;;4.63;3.70;;;17.50;99.90;;;;;;5055201;28;20252;-69
2023/05/31 07:31:42;;;;;;;6.60;4.30;;;17.50;99.90;;;;;;5054569;28;20697;-69
2023/05/31 07:34:10;;;;;;;7.30;4.67;;;17.50;99.90;;;;;;5054784;28;20211;-69
2023/05/31 07:36:39;;;;;;;4.00;3.60;;;17.40;99.90;;;;;;5054861;28;20633;-69
2023/05/31 07:39:10;;;;;;;5.97;4.40;;;17.40;99.90;;;;;;5054611;28;20291;-68
2023/05/31 07:41:38;;;;;;;11.87;4.80;;;17.30;99.90;;;;;;5054367;28;20202;-68
2023/05/31 07:44:06;;;;;;;6.73;3.90;;;17.20;99.90;;;;;;5053390;28;20220;-68
2023/05/31 07:46:33;;;;;;;6.10;4.20;;;17.30;99.90;;;;;;5054407;28;20187;-68
2023/05/31 07:49:01;;;;;;;8.73;4.97;;;17.20;99.90;;;;;;5054743;28;20239;-69
2023/05/31 07:51:32;;;;;;;6.50;4.07;;;17.10;99.90;;;;;;5054556;28;20357;-69
2023/05/31 07:54:00;;;;;;;12.73;4.33;;;17.00;99.90;;;;;;5054447;28;20176;-70
2023/05/31 07:56:27;;;;;;;5.27;3.30;;;16.80;99.90;;;;;;5054286;28;20247;-69
2023/05/31 07:58:55;;;;;;;14.43;4.00;;;16.80;99.90;;;;;;5054133;28;20254;-69
2023/05/31 08:01:23;;;;;;;8.90;4.43;;;16.80;99.90;;;;;;5054253;28;20178;-68
2023/05/31 08:03:51;;;;;;;7.37;3.80;;;16.70;99.90;;;;;;5054487;28;20180;-69
2023/05/31 08:06:18;;;;;;;10.37;3.83;;;16.60;99.90;;;;;;5036581;28;20615;-69
2023/05/31 08:08:46;;;;;;;6.07;3.70;;;16.60;99.90;;;;;;5054228;28;20264;-69
2023/05/31 08:11:14;;;;;;;7.10;3.73;;;16.50;99.90;;;;;;5035966;28;20220;-69
2023/05/31 08:13:42;;;;;;;8.67;3.80;;;16.40;99.90;;;;;;5054251;28;20176;-68
2023/05/31 08:16:09;;;;;;;15.63;3.83;;;16.30;99.90;;;;;;5054063;28;20546;-68
2023/05/31 08:18:37;;;;;;;14.23;3.73;;;16.30;99.90;;;;;;5054290;28;20276;-69
2023/05/31 08:21:05;;;;;;;7.63;4.27;;;16.20;99.90;;;;;;5054137;28;20230;-69
2023/05/31 08:23:33;;;;;;;9.87;4.87;;;16.10;99.90;;;;;;5053929;28;20205;-68
2023/05/31 08:26:00;;;;;;;9.63;4.53;;;16.10;99.90;;;;;;5053721;28;20544;-69
2023/05/31 08:28:30;;;;;;;18.37;6.53;;;16.10;99.90;;;;;;5054006;28;20173;-68
2023/05/31 08:30:57;;;;;;;6.97;4.63;;;16.10;99.90;;;;;;5053855;28;20212;-69
2023/05/31 08:33:31;;;;;;;9.20;6.13;;;16.00;99.90;;;;;;5053798;28;20581;-69
2023/05/31 08:36:04;;;;;;;10.77;5.93;;;15.90;99.90;;;;;;5053718;28;20259;-69
2023/05/31 08:38:35;;;;;;;11.00;6.43;;;15.90;99.90;;;;;;5053818;28;20180;-69
2023/05/31 08:41:04;;;;;;;11.50;6.30;;;15.80;99.90;;;;;;5035464;28;20180;-69
2023/05/31 08:43:35;;;;;;;12.40;6.00;;;15.80;99.90;;;;;;5053539;28;20176;-68
2023/05/31 08:46:08;;;;;;;12.43;5.87;;;15.80;99.90;;;;;;5053313;28;20232;-67
2023/05/31 08:48:38;;;;;;;12.53;5.43;;;15.60;99.90;;;;;;5053714;28;20187;-69
2023/05/31 08:51:12;;;;;;;9.27;5.80;;;15.50;99.90;;;;;;5053496;28;20227;-68
2023/05/31 08:53:41;;;;;;;15.00;6.07;;;15.50;99.90;;;;;;5053455;28;20173;-68
2023/05/31 08:56:10;;;;;;;11.00;6.47;;;15.40;99.90;;;;;;5035523;28;20183;-68
2023/05/31 08:58:39;;;;;;;11.80;6.67;;;15.50;99.90;;;;;;5053380;28;20259;-67
2023/05/31 09:01:07;;;;;;;7.40;6.07;;;15.50;99.90;;;;;;5053031;28;20681;-69
2023/05/31 09:03:37;;;;;;;7.37;5.37;;;15.50;99.90;;;;;;5053320;28;20176;-68
2023/05/31 09:06:04;;;;;;;9.50;5.57;;;15.50;99.90;;;;;;5053238;28;20180;-68
2023/05/31 09:08:35;;;;;;;9.73;6.40;;;15.50;99.90;;;;;;5053046;28;20207;-68
2023/05/31 09:11:03;;;;;;;11.00;6.03;;;15.50;99.90;;;;;;5035151;28;20213;-68
2023/05/31 09:13:31;;;;;;;13.33;6.97;;;15.60;99.90;;;;;;5052874;28;20168;-68
2023/05/31 09:16:01;;;;;;;11.50;6.57;;;15.60;99.90;;;;;;5052923;28;20184;-67
2023/05/31 09:18:36;;;;;;;9.73;7.27;;;15.50;99.90;;;;;;5053076;28;20608;-68
2023/05/31 09:21:09;;;;;;;12.97;7.60;;;15.50;99.90;;;;;;5052881;28;20223;-67
2023/05/31 09:23:51;;;;;;;12.63;7.60;;;15.60;99.90;;;;;;5052926;28;20634;-67
2023/05/31 09:26:25;;;;;;;9.47;7.27;;;15.60;99.90;;;;;;5053054;28;20230;-69
2023/05/31 09:28:54;;;;;;;16.07;6.83;;;15.70;99.90;;;;;;5052892;28;20208;-68
2023/05/31 09:31:22;;;;;;;9.33;6.70;;;15.70;99.90;;;;;;5052778;28;20208;-68
2023/05/31 09:33:52;;;;;;;14.23;6.97;;;15.60;99.90;;;;;;5052489;28;20672;-68
2023/05/31 09:36:28;;;;;;;9.43;6.80;;;15.60;99.90;;;;;;5053113;28;20172;-68
2023/05/31 09:39:04;;;;;;;10.10;6.13;;;15.50;99.90;;;;;;5052668;28;20607;-68
2023/05/31 09:41:33;;;;;;;13.43;7.13;;;15.50;99.90;;;;;;5052539;28;20710;-68
2023/05/31 09:44:01;;;;;;;9.27;6.47;;;15.40;99.90;;;;;;5052528;28;20180;-69
2023/05/31 09:46:29;;;;;;;15.13;6.87;;;15.30;99.90;;;;;;5052736;28;20539;-68
2023/05/31 09:49:01;;;;;;;10.83;6.70;;;15.30;99.90;;;;;;5052576;28;20180;-68
2023/05/31 09:51:32;;;;;;;9.23;6.00;;;15.20;99.90;;;;;;5052273;28;20216;-68
2023/05/31 09:54:10;;;;;;;13.50;6.53;;;15.20;99.90;;;;;;5052701;28;20642;-68
2023/05/31 09:56:40;;;;;;;9.80;6.13;;;15.20;99.90;;;;;;5052794;28;20238;-68
2023/05/31 09:59:08;;;;;;;11.80;6.60;;;15.30;99.90;;;;;;5052487;28;20622;-68
2023/05/31 10:01:37;;;;;;;9.93;6.37;;;15.20;99.90;;;;;;5052297;28;20713;-68
2023/05/31 10:04:06;;;;;;;8.00;5.47;;;15.20;99.90;;;;;;5052630;28;20172;-68
2023/05/31 10:06:37;;;;;;;13.10;6.63;;;15.20;99.90;;;;;;5052594;28;20175;-68
2023/05/31 10:09:08;;;;;;;8.50;5.30;;;15.20;99.90;;;;;;5057061;28;20181;-67
2023/05/31 10:11:38;;;;;;;9.63;6.17;;;15.10;99.90;;;;;;5056358;28;20617;-67
2023/05/31 10:14:13;;;;;;;9.27;6.37;;;15.10;99.90;;;;;;5038571;28;20652;-68
2023/05/31 10:16:49;;;;;;;11.03;6.57;;;15.10;99.90;;;;;;5038552;28;20664;-70
2023/05/31 10:19:45;;;;;;;9.93;6.13;;;15.10;99.90;;;;;;5056424;28;20258;-68
2023/05/31 10:22:15;;;;;;;9.47;7.53;;;15.10;99.90;;;;;;5056112;28;20625;-68
2023/05/31 10:25:06;;;;;;;12.20;8.47;;;15.10;99.90;;;;;;5038243;28;20184;-69
2023/05/31 10:27:42;;;;;;;12.87;8.50;;;15.00;99.90;;;;;;5056422;28;20177;-69
2023/05/31 10:30:12;;;;;;;11.93;7.13;;;15.00;99.90;;;;;;5055995;28;20230;-69
2023/05/31 10:32:51;;;;;;;12.63;6.77;;;14.90;99.90;;;;;;5055758;28;20208;-68
2023/05/31 10:35:19;;;;;;;10.60;6.93;;;14.80;99.90;;;;;;5055865;28;20172;-68
2023/05/31 10:37:49;;;;;;;12.33;7.60;;;14.70;99.90;;;;;;5055751;28;20186;-69
2023/05/31 10:40:33;;;;;;;10.13;7.13;;;14.70;99.90;;;;;;5055735;28;20229;-68
2023/05/31 10:43:17;;;;;;;12.63;7.30;;;14.60;99.90;;;;;;5055755;28;20179;-67
2023/05/31 10:46:00;;;;;;;12.93;7.60;;;14.60;99.90;;;;;;5055736;28;20242;-68
2023/05/31 10:48:49;;;;;;;17.23;8.10;;;14.40;99.90;;;;;;5056016;28;20179;-69
2023/05/31 10:51:17;;;;;;;12.33;8.17;;;14.40;99.90;;;;;;5055876;28;20231;-68
2023/05/31 10:53:46;;;;;;;15.77;9.47;;;14.30;99.90;;;;;;5055537;28;20165;-68
2023/05/31 10:56:17;;;;;;;13.60;8.87;;;14.30;99.90;;;;;;5037588;28;20180;-68
2023/05/31 10:58:54;;;;;;;13.00;8.23;;;14.30;99.90;;;;;;5055599;28;20210;-67
2023/05/31 11:01:22;;;;;;;15.30;8.90;;;14.30;99.90;;;;;;5055135;28;20671;-68
2023/05/31 11:03:54;;;;;;;14.70;8.13;;;14.30;99.90;;;;;;5055394;28;20195;-68
2023/05/31 11:06:38;;;;;;;10.27;7.77;;;14.30;99.90;;;;;;5055733;28;20642;-68
2023/05/31 11:09:16;;;;;;;12.77;8.60;;;14.20;99.90;;;;;;5055364;28;20207;-67
2023/05/31 11:11:49;;;;;;;14.10;9.17;;;14.20;99.90;;;;;;5055015;28;20219;-68
2023/05/31 11:14:28;;;;;;;19.43;9.70;;;14.20;99.90;;;;;;5055100;28;20181;-68
2023/05/31 11:16:57;;;;;;;16.03;9.53;;;14.20;99.90;;;;;;5055129;28;20188;-68
2023/05/31 11:19:30;;;;;;;15.30;8.90;;;14.20;99.90;;;;;;5055504;28;20234;-68
2023/05/31 11:22:19;;;;;;;16.13;9.17;;;14.30;99.90;;;;;;5037135;28;20184;-68
2023/05/31 11:24:58;;;;;;;14.43;9.10;;;14.20;99.90;;;;;;5040147;28;20185;-68
2023/05/31 11:27:48;;;;;;;11.23;8.53;;;14.20;99.90;;;;;;5054864;28;20180;-67
2023/05/31 11:30:16;;;;;;;12.43;8.07;;;14.10;99.90;;;;;;5054955;28;20173;-68
2023/05/31 11:32:44;;;;;;;17.30;9.53;;;14.10;99.90;;;;;;5054729;28;20205;-68
2023/05/31 11:35:16;;;;;;;19.10;9.00;;;14.10;99.90;;;;;;5054947;28;20483;-68
2023/05/31 11:37:45;;;;;;;13.13;9.30;;;14.10;99.90;;;;;;5054795;28;20177;-68
2023/05/31 11:40:16;;;;;;;15.37;9.00;;;14.00;99.90;;;;;;5054685;28;20183;-68
2023/05/31 11:42:46;;;;;;;13.90;9.83;;;14.00;99.90;;;;;;5036644;28;20185;-67
2023/05/31 11:45:22;;;;;;;17.40;10.67;;;14.00;99.90;;;;;;5054458;28;20235;-68
2023/05/31 11:48:08;;;;;;;16.60;10.13;;;14.00;99.90;;;;;;5055177;28;20259;-67
2023/05/31 11:50:36;;;;;;;17.43;11.50;;;14.00;99.90;;;;;;5054899;28;20290;-68
2023/05/31 11:53:06;;;;;;;17.57;11.30;;;13.90;99.90;;;;;;5054640;28;20192;-67
2023/05/31 11:55:37;;;;;;;13.90;8.73;;;13.80;99.90;;;;;;5054766;28;20183;-68
2023/05/31 11:58:08;;;;;;;13.33;9.03;;;13.80;99.90;;;;;;5046947;28;20654;-68
2023/05/31 12:00:36;;;;;;;15.20;8.63;;;13.70;99.90;;;;;;5036519;28;20172;-68
2023/05/31 12:03:05;;;;;;;13.40;8.67;;;13.70;99.90;;;;;;5054356;28;20270;-68
2023/05/31 12:05:33;;;;;;;20.00;9.23;;;13.60;99.90;;;;;;5054445;28;20169;-67
2023/05/31 12:08:00;;;;;;;16.03;9.47;;;13.60;99.90;;;;;;5054360;28;20176;-68
2023/05/31 12:10:31;;;;;;;15.27;8.87;;;13.60;99.90;;;;;;5054309;28;20195;-68
2023/05/31 12:13:02;;;;;;;15.60;8.90;;;13.50;99.90;;;;;;5054259;28;20188;-68
2023/05/31 12:15:33;;;;;;;14.23;9.77;;;13.60;99.90;;;;;;5054199;28;20177;-68
2023/05/31 12:18:01;;;;;;;17.83;11.70;;;13.60;99.90;;;;;;5054305;28;20231;-69
2023/05/31 12:20:34;;;;;;;15.80;11.20;;;13.60;99.90;;;;;;5054094;28;20187;-69
2023/05/31 12:23:18;;;;;;;19.87;11.90;;;13.60;99.90;;;;;;5054546;28;20196;-69
2023/05/31 12:25:52;;;;;;;18.73;11.93;;;13.60;99.90;;;;;;5054097;28;20191;-69
2023/05/31 12:28:23;;;;;;;18.80;11.23;;;13.70;99.90;;;;;;5054057;28;20697;-69
2023/05/31 12:30:51;;;;;;;19.00;10.70;;;13.70;99.90;;;;;;5053196;28;20227;-69
2023/05/31 12:33:20;;;;;;;14.13;9.57;;;13.70;99.90;;;;;;5053998;28;20683;-69
2023/05/31 12:35:48;;;;;;;18.00;9.97;;;13.60;99.90;;;;;;5053762;28;20180;-69
2023/05/31 12:38:16;;;;;;;24.67;10.37;;;13.70;99.90;;;;;;5053766;28;20233;-69
2023/05/31 12:40:53;;;;;;;13.70;7.93;;;13.60;99.90;;;;;;5053439;28;20199;-69
2023/05/31 12:43:21;;;;;;;14.00;8.50;;;13.60;99.90;;;;;;5053883;28;20175;-68
2023/05/31 12:45:52;;;;;;;11.63;8.00;;;13.50;99.90;;;;;;5053480;28;20230;-68
2023/05/31 12:48:24;;;;;;;14.97;7.57;;;13.40;99.90;;;;;;5053770;28;20669;-69
2023/05/31 12:50:52;;;;;;;22.50;14.03;;;13.40;99.90;;;;;;5054430;28;20258;-68
2023/05/31 12:53:25;;;;;;;15.13;9.73;;;13.40;99.90;;;;;;5035637;28;20173;-68
2023/05/31 12:55:53;;;;;;;10.40;7.43;;;13.30;99.90;;;;;;5053552;28;20567;-69
2023/05/31 12:58:21;;;;;;;15.87;8.33;;;13.30;99.90;;;;;;5053677;28;20187;-69
2023/05/31 13:00:48;;;;;;;14.00;7.27;;;13.30;99.90;;;;;;5053634;28;20259;-69
2023/05/31 13:03:16;;;;;;;12.03;6.97;;;13.20;99.90;;;;;;5053411;28;20179;-69
2023/05/31 13:05:44;;;;;;;14.50;7.37;;;13.20;99.90;;;;;;5053470;28;20748;-69